Big Bend National Park, Texas
Current Conditions -  °F | °C
As of 12:15 PM on Monday 22 Dec 2014 (Local Time) from KPRS Reporting Station
Clear Clear  
Wind Chill: 68°   Ceiling: Unl
Heat Index: 68°   Visibility: 10mi
Dew Point: 31°   Wind: 6mph
Humidity: 25%   Direction: 220°SW
Pressure: 29.87"   Gusts: NA
Location:  29.2813°N, 103.166°W
Report Text: KPRS 221815Z AUTO 22005KT 10SM CLR 20/M01 A2987 RMK AO2 T02021006
Loading
Personal Weather Stations






























Interactive Weather Map New forecast layout! Learn more

10-Day Weather Forecast

Advertisements
Track Severe Weather on mobile